Time;durP1;ratioP1;P1;durP2;ratioP2;P2;SDS_P1;SDS_P2;PMS_P1;PMS_P2;Temp;Humidity;BMP_temperature;BMP_pressure;BME280_temperature;BME280_humidity;BME280_pressure;Samples;Min_cycle;Max_cycle;Signal;HPM_P1;HPM_P2
2023/01/13 00:01:35;;;;;;;0.03;0.00;;;;;;;-146.30;100.00;58188.94;10428709;28;20089;-79
2023/01/13 00:06:36;;;;;;;0.20;0.20;;;;;;;-146.30;100.00;58188.94;10444978;28;20037;-79
2023/01/13 00:11:38;;;;;;;1.10;0.70;;;;;;;-146.30;100.00;58188.94;10428918;28;20038;-79
2023/01/13 00:16:40;;;;;;;0.08;0.00;;;;;;;-146.30;100.00;58188.94;10409532;28;20589;-79
2023/01/13 00:21:42;;;;;;;4.03;0.75;;;;;;;-146.30;100.00;58188.94;10423682;28;20490;-84
2023/01/13 00:26:44;;;;;;;2.38;0.20;;;;;;;-146.30;100.00;58188.94;10411590;28;20076;-81
2023/01/13 00:31:48;;;;;;;0.00;0.00;;;;;;;-146.30;100.00;58188.94;10419169;28;20061;-84
2023/01/13 00:36:49;;;;;;;1.45;0.28;;;;;;;-146.30;100.00;58188.94;10463124;28;20112;-85
2023/01/13 00:47:11;;;;;;;0.28;0.28;;;;;;;-146.30;100.00;58188.94;10437790;28;20068;-88
2023/01/13 00:52:13;;;;;;;3.50;0.98;;;;;;;-146.30;100.00;58188.94;10455955;28;20059;-79
2023/01/13 00:57:14;;;;;;;1.15;0.80;;;;;;;-146.30;100.00;58188.94;10421884;28;20056;-78
2023/01/13 01:02:16;;;;;;;0.08;0.00;;;;;;;-146.30;100.00;58188.94;10407735;28;20053;-77
2023/01/13 01:07:18;;;;;;;0.30;0.30;;;;;;;-146.30;100.00;58188.94;10400389;28;20115;-77
2023/01/13 01:12:20;;;;;;;0.15;0.10;;;;;;;-146.30;100.00;58188.94;10428251;28;20049;-77
2023/01/13 01:17:21;;;;;;;0.08;0.08;;;;;;;-146.30;100.00;58188.94;10402438;28;20440;-78
2023/01/13 01:22:23;;;;;;;0.55;0.52;;;;;;;-146.30;100.00;58188.94;10399849;28;20052;-78
2023/01/13 01:27:24;;;;;;;0.00;0.00;;;;;;;-146.30;100.00;58188.94;10395596;28;20056;-77
2023/01/13 01:32:26;;;;;;;3.25;0.40;;;;;;;-146.30;100.00;58188.94;10428680;28;20045;-77
2023/01/13 01:37:28;;;;;;;0.00;0.00;;;;;;;-146.30;100.00;58188.94;10383501;28;20058;-76
2023/01/13 01:47:58;;;;;;;1.30;1.20;;;;;;;-146.30;100.00;58188.94;10383987;28;20052;-77
2023/01/13 01:53:06;;;;;;;;;;;;;;;-146.30;100.00;58188.94;10413708;28;20048;-77
2023/01/13 01:58:17;;;;;;;0.75;0.75;;;;;;;-146.30;100.00;58188.94;10374107;28;20324;-76
2023/01/13 02:03:19;;;;;;;0.00;0.00;;;;;;;-146.30;100.00;58188.94;10389900;28;20048;-77
2023/01/13 02:08:21;;;;;;;3.00;0.65;;;;;;;-146.30;100.00;58188.94;10421242;28;20207;-78
2023/01/13 02:13:23;;;;;;;0.55;0.38;;;;;;;-146.30;100.00;58188.94;10404564;28;20042;-78
2023/01/13 02:18:28;;;;;;;0.00;0.00;;;;;;;-146.30;100.00;58188.94;10420970;28;20049;-78
2023/01/13 02:35:30;;;;;;;0.08;0.08;;;;;;;-146.30;100.00;58188.94;10420509;28;20041;-77
2023/01/13 02:40:39;;;;;;;0.30;0.22;;;;;;;-146.30;100.00;58188.94;10403752;28;20063;-76
2023/01/13 02:45:49;;;;;;;3.60;0.75;;;;;;;-146.30;100.00;58188.94;10419936;28;20041;-77
2023/01/13 02:51:07;;;;;;;0.00;0.00;;;;;;;-146.30;100.00;58188.94;10420387;28;20037;-77
2023/01/13 02:56:09;;;;;;;0.00;0.00;;;;;;;-146.30;100.00;58188.94;10408869;28;20092;-77
2023/01/13 03:01:11;;;;;;;0.00;0.00;;;;;;;-146.30;100.00;58188.94;10451596;28;20148;-78
2023/01/13 03:06:31;;;;;;;1.52;0.52;;;;;;;-146.30;100.00;58188.94;10424200;28;20033;-78
2023/01/13 03:11:44;;;;;;;0.75;0.70;;;;;;;-146.30;100.00;58188.94;10417981;28;20041;-77
2023/01/13 03:17:21;;;;;;;1.30;1.20;;;;;;;-146.30;100.00;58188.94;10418773;28;20034;-76
2023/01/13 03:22:32;;;;;;;0.00;0.00;;;;;;;-146.30;100.00;58188.94;10381868;28;20049;-77
2023/01/13 03:27:51;;;;;;;0.00;0.00;;;;;;;-146.30;100.00;58188.94;10403349;28;20050;-77
2023/01/13 03:33:03;;;;;;;13.43;0.30;;;;;;;-146.30;100.00;58188.94;10426190;28;20557;-76
2023/01/13 03:38:11;;;;;;;0.00;0.00;;;;;;;-146.30;100.00;58188.94;10418930;28;20477;-76
2023/01/13 03:48:42;;;;;;;0.17;0.10;;;;;;;-146.30;100.00;58188.94;10422465;28;20478;-76
2023/01/13 03:53:56;;;;;;;1.52;0.57;;;;;;;-146.30;100.00;58188.94;10400688;28;20453;-76
2023/01/13 03:59:01;;;;;;;0.10;0.10;;;;;;;-146.30;100.00;58188.94;10423844;28;20481;-76
2023/01/13 04:04:07;;;;;;;0.30;0.28;;;;;;;-146.30;100.00;58188.94;10429522;28;20064;-76
2023/01/13 04:09:18;;;;;;;0.00;0.00;;;;;;;-146.30;100.00;58188.94;10400063;28;20148;-77
2023/01/13 04:14:23;;;;;;;0.45;0.38;;;;;;;-146.30;100.00;58188.94;10415950;28;20046;-76
2023/01/13 04:19:28;;;;;;;0.00;0.00;;;;;;;-146.30;100.00;58188.94;10418926;28;20045;-77
2023/01/13 04:24:30;;;;;;;1.73;0.93;;;;;;;-146.30;100.00;58188.94;10409476;28;20132;-76
2023/01/13 04:29:31;;;;;;;2.80;1.00;;;;;;;-146.30;100.00;58188.94;10415843;28;20052;-75
2023/01/13 04:34:33;;;;;;;0.20;0.20;;;;;;;-146.30;100.00;58188.94;10436944;28;20103;-77
2023/01/13 04:39:34;;;;;;;1.75;0.20;;;;;;;-146.30;100.00;58188.94;10434438;28;20050;-76
2023/01/13 04:44:36;;;;;;;1.23;0.52;;;;;;;-146.30;100.00;58188.94;10414878;28;20041;-77
2023/01/13 04:49:37;;;;;;;1.00;0.35;;;;;;;-146.30;100.00;58188.94;10415172;28;20049;-77
2023/01/13 04:54:39;;;;;;;0.00;0.00;;;;;;;-146.30;100.00;58188.94;10402520;28;20076;-77
2023/01/13 04:59:41;;;;;;;0.25;0.25;;;;;;;-146.30;100.00;58188.94;10398583;28;20046;-77
2023/01/13 05:04:42;;;;;;;0.00;0.00;;;;;;;-146.30;100.00;58188.94;10415565;28;20045;-78
2023/01/13 05:09:44;;;;;;;0.10;0.10;;;;;;;-146.30;100.00;58188.94;10390727;28;20503;-77
2023/01/13 05:20:11;;;;;;;0.00;0.00;;;;;;;-146.30;100.00;58188.94;10389158;28;20049;-77
2023/01/13 05:25:23;;;;;;;0.03;0.03;;;;;;;-146.30;100.00;58188.94;10431572;28;20710;-76
2023/01/13 05:30:37;;;;;;;0.00;0.00;;;;;;;-146.30;100.00;58188.94;10403007;28;20053;-76
2023/01/13 05:35:41;;;;;;;1.13;0.20;;;;;;;-146.30;100.00;58188.94;10403322;28;20060;-76
2023/01/13 05:46:06;;;;;;;0.20;0.20;;;;;;;-146.30;100.00;58188.94;10423303;28;20045;-76
2023/01/13 05:51:11;;;;;;;0.00;0.00;;;;;;;-146.30;100.00;58188.94;10398215;28;20544;-76
2023/01/13 05:56:12;;;;;;;0.40;0.10;;;;;;;-146.30;100.00;58188.94;10420971;28;20033;-75
2023/01/13 06:01:14;;;;;;;0.20;0.20;;;;;;;-146.30;100.00;58188.94;10435763;28;20456;-76
2023/01/13 06:06:16;;;;;;;0.00;0.00;;;;;;;-146.30;100.00;58188.94;10401080;28;20038;-76
2023/01/13 06:11:18;;;;;;;0.00;0.00;;;;;;;-146.30;100.00;58188.94;10426378;28;20129;-76
2023/01/13 06:16:19;;;;;;;0.00;0.00;;;;;;;-146.30;100.00;58188.94;10409733;28;20038;-76
2023/01/13 06:21:21;;;;;;;0.20;0.10;;;;;;;-146.30;100.00;58188.94;10403185;28;20050;-75
2023/01/13 06:26:26;;;;;;;0.00;0.00;;;;;;;-146.30;100.00;58188.94;10412053;28;20057;-77
2023/01/13 06:31:29;;;;;;;0.00;0.00;;;;;;;-146.30;100.00;58188.94;10435054;28;20409;-77
2023/01/13 06:36:45;;;;;;;0.30;0.25;;;;;;;-146.30;100.00;58188.94;10422230;28;20481;-77
2023/01/13 06:47:10;;;;;;;0.15;0.15;;;;;;;-146.30;100.00;58188.94;10411790;28;20046;-76
2023/01/13 06:52:18;;;;;;;0.00;0.00;;;;;;;-146.30;100.00;58188.94;10418331;28;20152;-77
2023/01/13 06:57:20;;;;;;;0.20;0.20;;;;;;;-146.30;100.00;58188.94;10419496;28;20160;-77
2023/01/13 07:02:21;;;;;;;0.20;0.13;;;;;;;-146.30;100.00;58188.94;10406464;28;20132;-77
2023/01/13 07:07:23;;;;;;;0.65;0.40;;;;;;;-146.30;100.00;58188.94;10419295;28;20133;-77
2023/01/13 07:12:25;;;;;;;0.00;0.00;;;;;;;-146.30;100.00;58188.94;10418985;28;20045;-77
2023/01/13 07:17:29;;;;;;;0.55;0.43;;;;;;;-146.30;100.00;58188.94;10405925;28;20457;-76
2023/01/13 07:22:31;;;;;;;0.00;0.00;;;;;;;-146.30;100.00;58188.94;10448891;28;20051;-76
2023/01/13 07:27:32;;;;;;;0.50;0.15;;;;;;;-146.30;100.00;58188.94;10459799;28;20045;-76
2023/01/13 07:32:34;;;;;;;0.10;0.10;;;;;;;-146.30;100.00;58188.94;10457414;28;20493;-76
2023/01/13 07:37:38;;;;;;;0.00;0.00;;;;;;;-146.30;100.00;58188.94;10453798;28;20049;-78
2023/01/13 07:48:00;;;;;;;0.00;0.00;;;;;;;-146.30;100.00;58188.94;10406139;28;20041;-75
2023/01/13 07:53:02;;;;;;;0.00;0.00;;;;;;;-146.30;100.00;58188.94;10416114;28;20088;-76
2023/01/13 07:58:04;;;;;;;0.22;0.22;;;;;;;-146.30;100.00;58188.94;10388576;28;20100;-76
2023/01/13 08:03:05;;;;;;;0.32;0.30;;;;;;;-146.30;100.00;58188.94;10433223;28;20385;-76
2023/01/13 08:08:07;;;;;;;0.45;0.15;;;;;;;-146.30;100.00;58188.94;10416211;28;20068;-77
2023/01/13 08:13:21;;;;;;;0.40;0.38;;;;;;;-146.30;100.00;58188.94;10413833;28;20095;-75
2023/01/13 08:18:22;;;;;;;4.18;0.70;;;;;;;-146.30;100.00;58188.94;10414147;28;20057;-75
2023/01/13 08:23:24;;;;;;;0.00;0.00;;;;;;;-146.30;100.00;58188.94;10412722;28;20116;-75
2023/01/13 08:28:26;;;;;;;4.28;0.85;;;;;;;-146.30;100.00;58188.94;10412917;28;20053;-76
2023/01/13 08:33:27;;;;;;;0.25;0.13;;;;;;;-146.30;100.00;58188.94;10398303;28;20080;-76
2023/01/13 08:38:29;;;;;;;4.47;0.30;;;;;;;-146.30;100.00;58188.94;10429999;28;20076;-76
2023/01/13 08:43:31;;;;;;;0.00;0.00;;;;;;;-146.30;100.00;58188.94;10428411;28;20523;-77
2023/01/13 08:48:33;;;;;;;0.00;0.00;;;;;;;-146.30;100.00;58188.94;10434347;28;20049;-77
2023/01/13 08:53:34;;;;;;;0.30;0.30;;;;;;;-146.30;100.00;58188.94;10416109;28;20106;-76
2023/01/13 08:58:36;;;;;;;0.17;0.17;;;;;;;-146.30;100.00;58188.94;10414503;28;20041;-75
2023/01/13 09:03:38;;;;;;;0.00;0.00;;;;;;;-146.30;100.00;58188.94;10400372;28;20044;-76
2023/01/13 09:08:39;;;;;;;0.30;0.22;;;;;;;-146.30;100.00;58188.94;10415672;28;20099;-78
2023/01/13 09:13:42;;;;;;;0.22;0.13;;;;;;;-146.30;100.00;58188.94;10388098;28;20037;-76
2023/01/13 09:18:46;;;;;;;0.35;0.15;;;;;;;-146.30;100.00;58188.94;10396446;28;20552;-76
2023/01/13 09:23:47;;;;;;;0.35;0.20;;;;;;;-146.30;100.00;58188.94;10407189;28;20448;-76
2023/01/13 09:28:52;;;;;;;0.70;0.15;;;;;;;-146.30;100.00;58188.94;10401673;28;20053;-77
2023/01/13 09:39:14;;;;;;;0.00;0.00;;;;;;;-146.30;100.00;58188.94;10403422;28;20042;-75
2023/01/13 09:44:24;;;;;;;3.10;0.80;;;;;;;-146.30;100.00;58188.94;10394220;28;20077;-76
2023/01/13 09:49:40;;;;;;;1.95;0.73;;;;;;;-146.30;100.00;58188.94;10447943;28;20053;-76
2023/01/13 09:54:44;;;;;;;0.85;0.32;;;;;;;-146.30;100.00;58188.94;10391073;28;20183;-77
2023/01/13 09:59:47;;;;;;;7.60;0.40;;;;;;;-146.30;100.00;58188.94;10418178;28;20521;-76
2023/01/13 10:05:10;;;;;;;0.98;0.47;;;;;;;-146.30;100.00;58188.94;10370702;28;20046;-77
2023/01/13 10:10:20;;;;;;;0.00;0.00;;;;;;;-146.30;100.00;58188.94;10393323;28;20046;-76
2023/01/13 10:15:24;;;;;;;8.03;0.23;;;;;;;-146.30;100.00;58188.94;10413092;28;20091;-76
2023/01/13 10:20:34;;;;;;;0.00;0.00;;;;;;;-146.30;100.00;58188.94;10413423;28;20045;-76
2023/01/13 10:25:42;;;;;;;0.08;0.08;;;;;;;-146.30;100.00;58188.94;10419487;28;20045;-75
2023/01/13 10:30:45;;;;;;;0.00;0.00;;;;;;;-146.30;100.00;58188.94;10420904;28;20065;-76
2023/01/13 10:35:54;;;;;;;2.35;0.43;;;;;;;-146.30;100.00;58188.94;10420278;28;20033;-76
2023/01/13 10:40:58;;;;;;;26.10;0.85;;;;;;;-146.30;100.00;58188.94;10421945;28;20095;-76
2023/01/13 10:46:09;;;;;;;0.20;0.20;;;;;;;-146.30;100.00;58188.94;10399823;28;20041;-76
2023/01/13 10:51:19;;;;;;;0.20;0.20;;;;;;;-146.30;100.00;58188.94;10403696;28;20041;-77
2023/01/13 10:56:22;;;;;;;0.35;0.35;;;;;;;-146.30;100.00;58188.94;10378074;28;20460;-76
2023/01/13 11:01:26;;;;;;;0.28;0.05;;;;;;;-146.30;100.00;58188.94;10419556;28;20047;-76
2023/01/13 11:06:29;;;;;;;0.10;0.10;;;;;;;-146.30;100.00;58188.94;10401849;28;20463;-77
2023/01/13 11:11:46;;;;;;;0.00;0.00;;;;;;;-146.30;100.00;58188.94;10418593;28;20115;-76
2023/01/13 11:16:52;;;;;;;0.00;0.00;;;;;;;-146.30;100.00;58188.94;10423753;28;20094;-76
2023/01/13 11:22:01;;;;;;;1.67;0.30;;;;;;;-146.30;100.00;58188.94;10435707;28;20129;-77
2023/01/13 11:27:37;;;;;;;0.10;0.10;;;;;;;-146.30;100.00;58188.94;10416335;28;20095;-76
2023/01/13 11:33:01;;;;;;;0.00;0.00;;;;;;;-146.30;100.00;58188.94;10413984;28;20099;-76
2023/01/13 11:38:12;;;;;;;1.58;1.05;;;;;;;-146.30;100.00;58188.94;10399951;28;20084;-77
2023/01/13 11:43:30;;;;;;;0.30;0.30;;;;;;;-146.30;100.00;58188.94;10399705;28;20459;-76
2023/01/13 11:48:36;;;;;;;0.52;0.15;;;;;;;-146.30;100.00;58188.94;10417088;28;20392;-76
2023/01/13 11:54:06;;;;;;;0.15;0.15;;;;;;;-146.30;100.00;58188.94;10402107;28;20053;-77
2023/01/13 11:59:29;;;;;;;1.92;1.02;;;;;;;-146.30;100.00;58188.94;10429634;28;20045;-77
2023/01/13 12:04:41;;;;;;;1.65;0.20;;;;;;;-146.30;100.00;58188.94;10416683;28;20485;-76
2023/01/13 12:10:05;;;;;;;0.00;0.00;;;;;;;-146.30;100.00;58188.94;10404383;28;20076;-76
2023/01/13 12:15:20;;;;;;;0.28;0.20;;;;;;;-146.30;100.00;58188.94;10399645;28;20111;-76
2023/01/13 12:20:49;;;;;;;0.00;0.00;;;;;;;-146.30;100.00;58188.94;10415005;28;20049;-76
2023/01/13 12:25:57;;;;;;;0.28;0.28;;;;;;;-146.30;100.00;58188.94;10402202;28;20386;-76
2023/01/13 12:31:00;;;;;;;0.03;0.00;;;;;;;-146.30;100.00;58188.94;10414088;28;20041;-77
2023/01/13 12:36:13;;;;;;;0.38;0.38;;;;;;;-146.30;100.00;58188.94;10413984;28;20115;-76
2023/01/13 12:41:29;;;;;;;0.32;0.25;;;;;;;-146.30;100.00;58188.94;10395782;28;20053;-76
2023/01/13 12:46:31;;;;;;;1.75;1.27;;;;;;;-146.30;100.00;58188.94;10414586;28;20068;-77
2023/01/13 12:51:59;;;;;;;0.95;0.73;;;;;;;-146.30;100.00;58188.94;10413790;28;20087;-76
2023/01/13 12:57:13;;;;;;;1.10;0.45;;;;;;;-146.30;100.00;58188.94;10397687;28;20515;-74
2023/01/13 13:02:23;;;;;;;3.92;0.60;;;;;;;-146.30;100.00;58188.94;10413988;28;20049;-76
2023/01/13 13:07:41;;;;;;;0.00;0.00;;;;;;;-146.30;100.00;58188.94;10414564;28;20045;-76
2023/01/13 13:18:15;;;;;;;0.22;0.20;;;;;;;-146.30;100.00;58188.94;10403348;28;20096;-76
2023/01/13 13:23:32;;;;;;;0.20;0.17;;;;;;;-146.30;100.00;58188.94;10413130;28;20072;-75
2023/01/13 13:28:44;;;;;;;0.00;0.00;;;;;;;-146.30;100.00;58188.94;10413056;28;20075;-76
2023/01/13 13:33:54;;;;;;;0.25;0.10;;;;;;;-146.30;100.00;58188.94;10407522;28;20046;-76
2023/01/13 13:50:19;;;;;;;0.10;0.00;;;;;;;-146.30;100.00;58188.94;10424217;28;20124;-84
2023/01/13 13:55:27;;;;;;;0.00;0.00;;;;;;;-146.30;100.00;58188.94;10412555;28;20049;-84
2023/01/13 14:00:33;;;;;;;0.00;0.00;;;;;;;-146.30;100.00;58188.94;10405527;28;20095;-84
2023/01/13 14:05:37;;;;;;;0.10;0.10;;;;;;;-146.30;100.00;58188.94;10424078;28;20068;-83
2023/01/13 14:10:44;;;;;;;0.08;0.08;;;;;;;-146.30;100.00;58188.94;10453037;28;20052;-83
2023/01/13 14:16:03;;;;;;;3.30;2.83;;;;;;;-146.30;100.00;58188.94;10433207;28;20444;-84
2023/01/13 14:21:15;;;;;;;0.00;0.00;;;;;;;-146.30;100.00;58188.94;10415094;28;20378;-84
2023/01/13 14:26:16;;;;;;;0.00;0.00;;;;;;;-146.30;100.00;58188.94;10416559;28;20132;-85
2023/01/13 14:31:19;;;;;;;0.00;0.00;;;;;;;-146.30;100.00;58188.94;10420123;28;20067;-84
2023/01/13 14:36:26;;;;;;;0.00;0.00;;;;;;;-146.30;100.00;58188.94;10418447;28;20511;-84
2023/01/13 14:41:37;;;;;;;0.25;0.10;;;;;;;-146.30;100.00;58188.94;10414738;28;20045;-80
2023/01/13 14:46:43;;;;;;;7.90;0.20;;;;;;;-146.30;100.00;58188.94;10431235;28;20112;-79
2023/01/13 14:51:48;;;;;;;0.00;0.00;;;;;;;-146.30;100.00;58188.94;10421833;28;20123;-81
2023/01/13 14:56:52;;;;;;;0.22;0.20;;;;;;;-146.30;100.00;58188.94;10438236;28;20049;-80
2023/01/13 15:01:54;;;;;;;4.80;0.77;;;;;;;-146.30;100.00;58188.94;10408510;28;20485;-80
2023/01/13 15:06:57;;;;;;;2.15;1.17;;;;;;;-146.30;100.00;58188.94;10411288;28;20053;-80
2023/01/13 15:12:16;;;;;;;0.30;0.28;;;;;;;-146.30;100.00;58188.94;10420148;28;20053;-80
2023/01/13 15:17:17;;;;;;;0.00;0.00;;;;;;;-146.30;100.00;58188.94;10424679;28;20041;-80
2023/01/13 15:22:19;;;;;;;0.00;0.00;;;;;;;-146.30;100.00;58188.94;10430663;28;20397;-80
2023/01/13 15:27:24;;;;;;;0.43;0.22;;;;;;;-146.30;100.00;58188.94;10419038;28;20076;-80
2023/01/13 15:32:26;;;;;;;1.20;0.50;;;;;;;-146.30;100.00;58188.94;10423933;28;20056;-81
2023/01/13 15:37:28;;;;;;;2.08;0.20;;;;;;;-146.30;100.00;58188.94;10430012;28;20041;-81
2023/01/13 15:47:49;;;;;;;0.00;0.00;;;;;;;-146.30;100.00;58188.94;10432519;28;20045;-80
2023/01/13 15:52:51;;;;;;;0.00;0.00;;;;;;;-146.30;100.00;58188.94;10422350;28;20439;-80
2023/01/13 15:57:53;;;;;;;0.40;0.20;;;;;;;-146.30;100.00;58188.94;10419524;28;20440;-80
2023/01/13 16:02:54;;;;;;;0.05;0.05;;;;;;;-146.30;100.00;58188.94;10414004;28;20095;-80
2023/01/13 16:07:57;;;;;;;4.72;0.55;;;;;;;-146.30;100.00;58188.94;10410095;28;20041;-80
2023/01/13 16:12:58;;;;;;;7.82;1.15;;;;;;;-146.30;100.00;58188.94;10411226;28;20049;-80
2023/01/13 16:18:03;;;;;;;10.23;0.30;;;;;;;-146.30;100.00;58188.94;10425564;28;20119;-79
2023/01/13 16:23:04;;;;;;;0.00;0.00;;;;;;;-146.30;100.00;58188.94;10427499;28;20069;-79
2023/01/13 16:28:06;;;;;;;0.00;0.00;;;;;;;-146.30;100.00;58188.94;10429237;28;20041;-79
2023/01/13 16:33:07;;;;;;;0.00;0.00;;;;;;;-146.30;100.00;58188.94;10421632;28;20096;-79
2023/01/13 16:38:16;;;;;;;0.10;0.10;;;;;;;-146.30;100.00;58188.94;10422214;28;20041;-79
2023/01/13 16:43:18;;;;;;;0.30;0.30;;;;;;;-146.30;100.00;58188.94;10406369;28;20080;-80
2023/01/13 16:48:19;;;;;;;1.52;0.73;;;;;;;-146.30;100.00;58188.94;10411810;28;20053;-80
2023/01/13 16:53:21;;;;;;;0.08;0.08;;;;;;;-146.30;100.00;58188.94;10415732;28;20404;-80
2023/01/13 16:58:22;;;;;;;0.85;0.40;;;;;;;-146.30;100.00;58188.94;10412126;28;20045;-80
2023/01/13 17:03:24;;;;;;;0.00;0.00;;;;;;;-146.30;100.00;58188.94;10411414;28;20136;-81
2023/01/13 17:08:25;;;;;;;0.00;0.00;;;;;;;-146.30;100.00;58188.94;10413892;28;20049;-87
2023/01/13 17:13:27;;;;;;;0.38;0.15;;;;;;;-146.30;100.00;58188.94;10413295;28;20041;-87
2023/01/13 17:18:31;;;;;;;0.32;0.32;;;;;;;-146.30;100.00;58188.94;10416830;28;20112;-90
2023/01/13 17:23:32;;;;;;;0.00;0.00;;;;;;;-146.30;100.00;58188.94;10412280;28;20045;-88
2023/01/13 17:28:34;;;;;;;0.00;0.00;;;;;;;-146.30;100.00;58188.94;10412702;28;20069;-88
2023/01/13 17:33:36;;;;;;;1.45;0.57;;;;;;;-146.30;100.00;58188.94;10417386;28;20069;-89
2023/01/13 17:38:37;;;;;;;0.10;0.10;;;;;;;-146.30;100.00;58188.94;10428342;28;20041;-88
2023/01/13 17:43:39;;;;;;;2.83;0.30;;;;;;;-146.30;100.00;58188.94;10437945;28;20083;-88
2023/01/13 17:48:40;;;;;;;0.00;0.00;;;;;;;-146.30;100.00;58188.94;10442665;28;20056;-86
2023/01/13 17:53:44;;;;;;;0.00;0.00;;;;;;;-146.30;100.00;58188.94;10425594;28;20041;-87
2023/01/13 17:58:45;;;;;;;0.00;0.00;;;;;;;-146.30;100.00;58188.94;10420517;28;20053;-87
2023/01/13 18:03:47;;;;;;;0.45;0.45;;;;;;;-146.30;100.00;58188.94;10452403;28;20061;-88
2023/01/13 18:08:49;;;;;;;0.20;0.10;;;;;;;-146.30;100.00;58188.94;10430230;28;20057;-86
2023/01/13 18:13:56;;;;;;;0.08;0.08;;;;;;;-146.30;100.00;58188.94;10428951;28;20448;-84
2023/01/13 18:27:17;;;;;;;0.00;0.00;;;;;;;-146.30;100.00;58188.94;10433398;28;20099;-85
2023/01/13 18:29:40;;;;;;;0.00;0.00;;;;;;;-146.30;100.00;58188.94;10433112;28;20049;-84
2023/01/13 18:34:42;;;;;;;4.85;0.57;;;;;;;-146.30;100.00;58188.94;10432230;28;20044;-84
2023/01/13 18:39:43;;;;;;;0.00;0.00;;;;;;;-146.30;100.00;58188.94;10479601;28;20036;-86
2023/01/13 18:44:45;;;;;;;0.00;0.00;;;;;;;-146.30;100.00;58188.94;10439728;28;20076;-83
2023/01/13 18:49:46;;;;;;;0.00;0.00;;;;;;;-146.30;100.00;58188.94;10420580;28;20042;-83
2023/01/13 18:54:48;;;;;;;0.90;0.22;;;;;;;-146.30;100.00;58188.94;10420344;28;20455;-83
2023/01/13 18:59:49;;;;;;;0.00;0.00;;;;;;;-146.30;100.00;58188.94;10405927;28;20566;-82
2023/01/13 19:04:52;;;;;;;0.00;0.00;;;;;;;-146.30;100.00;58188.94;10420080;28;20054;-82
2023/01/13 19:09:54;;;;;;;0.00;0.00;;;;;;;-146.30;100.00;58188.94;10398939;28;20034;-82
2023/01/13 19:14:57;;;;;;;0.00;0.00;;;;;;;-146.30;100.00;58188.94;10415295;28;20091;-82
2023/01/13 19:19:59;;;;;;;0.00;0.00;;;;;;;-146.30;100.00;58188.94;10402886;28;20049;-82
2023/01/13 19:25:02;;;;;;;0.13;0.13;;;;;;;-146.30;100.00;58188.94;10440190;28;20060;-83
2023/01/13 19:30:04;;;;;;;0.00;0.00;;;;;;;-146.30;100.00;58188.94;10438748;28;20052;-82
2023/01/13 19:35:06;;;;;;;3.30;0.57;;;;;;;-146.30;100.00;58188.94;10429605;28;20056;-82
2023/01/13 19:40:09;;;;;;;0.70;0.20;;;;;;;-146.30;100.00;58188.94;10431680;28;20059;-82
2023/01/13 19:45:25;;;;;;;0.00;0.00;;;;;;;-146.30;100.00;58188.94;10429436;28;20045;-83
2023/01/13 19:50:26;;;;;;;0.20;0.10;;;;;;;-146.30;100.00;58188.94;10419670;28;20401;-83
2023/01/13 19:55:30;;;;;;;0.00;0.00;;;;;;;-146.30;100.00;58188.94;10430065;28;20404;-83
2023/01/13 20:00:48;;;;;;;0.75;0.25;;;;;;;-146.30;100.00;58188.94;10421614;28;20477;-86
2023/01/13 20:05:52;;;;;;;0.00;0.00;;;;;;;-146.30;100.00;58188.94;10410914;28;20041;-85
2023/01/13 20:11:20;;;;;;;0.00;0.00;;;;;;;-146.30;100.00;58188.94;10437006;28;20076;-84
2023/01/13 20:16:18;;;;;;;0.08;0.08;;;;;;;-146.30;100.00;58188.94;10430439;28;20076;-84
2023/01/13 20:21:20;;;;;;;0.00;0.00;;;;;;;-146.30;100.00;58188.94;10422561;28;20107;-84
2023/01/13 20:26:21;;;;;;;0.00;0.00;;;;;;;-146.30;100.00;58188.94;10426914;28;20044;-82
2023/01/13 20:31:23;;;;;;;0.28;0.28;;;;;;;-146.30;100.00;58188.94;10427555;28;20033;-85
2023/01/13 20:36:28;;;;;;;0.30;0.20;;;;;;;-146.30;100.00;58188.94;10428914;28;20036;-86
2023/01/13 20:46:58;;;;;;;2.40;0.75;;;;;;;-146.30;100.00;58188.94;10441360;28;20048;-85
2023/01/13 20:51:59;;;;;;;3.15;1.48;;;;;;;-146.30;100.00;58188.94;10436957;28;20088;-86
2023/01/13 20:57:03;;;;;;;0.20;0.20;;;;;;;-146.30;100.00;58188.94;10416120;28;20049;-85
2023/01/13 21:02:09;;;;;;;0.00;0.00;;;;;;;-146.30;100.00;58188.94;10416264;28;20065;-87
2023/01/13 21:07:11;;;;;;;0.57;0.30;;;;;;;-146.30;100.00;58188.94;10423966;28;20439;-86
2023/01/13 21:22:56;;;;;;;0.00;0.00;;;;;;;-146.30;100.00;58188.94;10406745;28;20049;-87
2023/01/13 21:28:04;;;;;;;0.20;0.20;;;;;;;-146.30;100.00;58188.94;10418105;28;20096;-86
2023/01/13 21:33:06;;;;;;;0.08;0.08;;;;;;;-146.30;100.00;58188.94;10417467;28;20049;-89
2023/01/13 21:38:09;;;;;;;0.10;0.10;;;;;;;-146.30;100.00;58188.94;10425619;28;20058;-87
2023/01/13 21:48:43;;;;;;;0.00;0.00;;;;;;;-146.30;100.00;58188.94;10439585;28;20527;-84
2023/01/13 21:53:45;;;;;;;0.00;0.00;;;;;;;-146.30;100.00;58188.94;10408341;28;20107;-87
2023/01/13 21:58:47;;;;;;;0.00;0.00;;;;;;;-146.30;100.00;58188.94;10420258;28;20037;-87
2023/01/13 22:09:09;;;;;;;0.00;0.00;;;;;;;-146.30;100.00;58188.94;10419025;28;20041;-88
2023/01/13 22:14:12;;;;;;;0.00;0.00;;;;;;;-146.30;100.00;58188.94;10414028;28;20037;-88
2023/01/13 22:19:17;;;;;;;0.10;0.10;;;;;;;-146.30;100.00;58188.94;10404649;28;20048;-85
2023/01/13 22:24:18;;;;;;;0.90;0.47;;;;;;;-146.30;100.00;58188.94;10405408;28;20064;-87
2023/01/13 22:29:20;;;;;;;0.00;0.00;;;;;;;-146.30;100.00;58188.94;10423444;28;20033;-87
2023/01/13 22:34:21;;;;;;;0.13;0.13;;;;;;;-146.30;100.00;58188.94;10424547;28;20136;-86
2023/01/13 22:39:23;;;;;;;0.88;0.45;;;;;;;-146.30;100.00;58188.94;10425325;28;20030;-85
2023/01/13 22:44:25;;;;;;;0.10;0.10;;;;;;;-146.30;100.00;58188.94;10425723;28;20128;-85
2023/01/13 22:49:27;;;;;;;0.55;0.52;;;;;;;-146.30;100.00;58188.94;10424950;28;20475;-87
2023/01/13 22:54:29;;;;;;;2.47;1.30;;;;;;;-146.30;100.00;58188.94;10424813;28;20092;-87
2023/01/13 22:59:30;;;;;;;0.08;0.08;;;;;;;-146.30;100.00;58188.94;10422808;28;20046;-86
2023/01/13 23:04:32;;;;;;;0.00;0.00;;;;;;;-146.30;100.00;58188.94;10467496;28;20022;-86
2023/01/13 23:09:34;;;;;;;0.20;0.10;;;;;;;-146.30;100.00;58188.94;10413133;28;20068;-87
2023/01/13 23:14:35;;;;;;;0.20;0.17;;;;;;;-146.30;100.00;58188.94;10419698;28;20485;-88
2023/01/13 23:19:37;;;;;;;0.00;0.00;;;;;;;-146.30;100.00;58188.94;10438588;28;20060;-87
2023/01/13 23:24:39;;;;;;;0.13;0.13;;;;;;;-146.30;100.00;58188.94;10455421;28;20140;-87
2023/01/13 23:29:43;;;;;;;0.85;0.55;;;;;;;-146.30;100.00;58188.94;10405720;28;20064;-88
2023/01/13 23:34:45;;;;;;;0.10;0.10;;;;;;;-146.30;100.00;58188.94;10427441;28;20140;-88
2023/01/13 23:39:46;;;;;;;0.52;0.20;;;;;;;-146.30;100.00;58188.94;10430700;28;20041;-88
2023/01/13 23:44:48;;;;;;;0.30;0.28;;;;;;;-146.30;100.00;58188.94;10416314;28;20448;-87
2023/01/13 23:49:49;;;;;;;0.00;0.00;;;;;;;-146.30;100.00;58188.94;10431175;28;20068;-87
2023/01/13 23:54:51;;;;;;;0.00;0.00;;;;;;;-146.30;100.00;58188.94;10387655;28;20061;-89
2023/01/13 23:59:53;;;;;;;0.00;0.00;;;;;;;-146.30;100.00;58188.94;10415288;28;20052;-88
